createdAt,value
2023-02-06T00:05:00.287Z,67.63
2023-02-06T00:10:05.778Z,71.15
2023-02-06T00:15:10.275Z,78.47
2023-02-06T00:20:14.554Z,82.28
2023-02-06T00:25:19.547Z,78.95
2023-02-06T00:30:22.980Z,85.93
2023-02-06T00:35:26.378Z,95.70
2023-02-06T00:40:31.272Z,101.32
2023-02-06T00:45:35.284Z,87.78
2023-02-06T00:50:39.669Z,90.65
2023-02-06T00:55:44.775Z,99.75
2023-02-06T01:00:48.192Z,96.13
2023-02-06T01:05:51.818Z,96.05
2023-02-06T01:10:56.997Z,119.30
2023-02-06T01:16:00.426Z,93.07
2023-02-06T01:21:08.058Z,71.43
2023-02-06T01:26:16.015Z,71.40
2023-02-06T01:31:22.141Z,77.13
2023-02-06T01:36:26.073Z,80.05
2023-02-06T01:41:31.122Z,85.85
2023-02-06T01:46:34.879Z,78.03
2023-02-06T01:51:38.737Z,77.63
2023-02-06T01:56:48.976Z,73.72
2023-02-06T02:01:52.450Z,60.97
2023-02-06T02:07:05.798Z,60.83
2023-02-06T02:17:28.841Z,61.60
2023-02-06T02:22:45.262Z,64.55
2023-02-06T02:28:08.928Z,65.95
2023-02-06T02:38:57.161Z,67.85
2023-02-06T02:44:06.226Z,62.10
2023-02-06T02:49:14.814Z,57.35
2023-02-06T02:54:19.930Z,61.38
2023-02-06T02:59:28.950Z,55.65
2023-02-06T03:04:38.859Z,53.38
2023-02-06T03:09:54.604Z,54.13
2023-02-06T03:15:04.111Z,50.70
2023-02-06T03:20:10.455Z,55.78
2023-02-06T03:25:19.843Z,49.67
2023-02-06T03:30:26.880Z,55.15
2023-02-06T03:35:35.191Z,54.53
2023-02-06T03:40:41.920Z,53.10
2023-02-06T03:45:48.181Z,52.45
2023-02-06T03:50:54.320Z,53.58
2023-02-06T03:56:07.510Z,52.65
2023-02-06T04:01:11.703Z,54.88
2023-02-06T04:06:15.148Z,61.55
2023-02-06T04:11:19.976Z,60.97
2023-02-06T04:16:23.467Z,61.25
2023-02-06T04:21:26.961Z,60.28
2023-02-06T04:26:31.782Z,73.22
2023-02-06T04:31:35.327Z,75.30
2023-02-06T04:36:39.215Z,73.35
2023-02-06T04:41:43.997Z,74.88
2023-02-06T04:46:47.907Z,71.88
2023-02-06T04:51:51.574Z,69.85
2023-02-06T04:56:56.703Z,61.35
2023-02-06T05:02:00.128Z,68.13
2023-02-06T05:07:05.518Z,60.67
2023-02-06T05:12:12.054Z,59.25
2023-02-06T05:17:16.846Z,60.60
2023-02-06T05:22:20.343Z,66.05
2023-02-06T05:27:25.751Z,66.30
2023-02-06T05:32:29.334Z,81.95
2023-02-06T05:37:32.827Z,75.60
2023-02-06T05:42:37.878Z,73.00
2023-02-06T05:47:41.301Z,72.65
2023-02-06T05:52:44.734Z,72.53
2023-02-06T05:57:49.998Z,72.43
2023-02-06T06:02:53.485Z,75.38
2023-02-06T06:07:57.338Z,73.90
2023-02-06T06:13:02.129Z,71.68
2023-02-06T06:18:05.683Z,69.90
2023-02-06T06:23:09.096Z,70.68
2023-02-06T06:28:13.973Z,71.80
2023-02-06T06:33:17.884Z,74.50
2023-02-06T06:38:21.358Z,76.93
2023-02-06T06:43:26.292Z,70.05
2023-02-06T06:48:30.081Z,70.38
2023-02-06T06:53:33.475Z,79.13
2023-02-06T06:58:39.149Z,81.18
2023-02-06T07:03:44.227Z,70.85
2023-02-06T07:08:47.683Z,72.82
2023-02-06T07:13:52.480Z,68.50
2023-02-06T07:18:55.952Z,74.75
2023-02-06T07:23:59.708Z,93.75
2023-02-06T07:29:04.699Z,85.97
2023-02-06T07:34:08.176Z,97.15
2023-02-06T07:39:11.571Z,95.97
2023-02-06T07:44:16.672Z,91.70
2023-02-06T07:49:20.126Z,76.53
2023-02-06T07:54:23.650Z,94.45
2023-02-06T07:59:28.793Z,95.30
2023-02-06T08:04:35.340Z,77.22
2023-02-06T08:09:38.849Z,80.15
2023-02-06T08:14:45.961Z,114.57
2023-02-06T08:19:49.939Z,109.10
2023-02-06T08:24:53.332Z,101.22
2023-02-06T08:29:59.448Z,103.90
2023-02-06T08:35:04.218Z,103.22
2023-02-06T08:40:08.764Z,107.65
2023-02-06T08:45:13.501Z,92.55
2023-02-06T08:50:17.555Z,89.93
2023-02-06T08:55:25.284Z,81.32
2023-02-06T09:00:30.333Z,64.47
2023-02-06T09:05:34.412Z,71.35
2023-02-06T09:10:38.463Z,68.25
2023-02-06T09:15:43.401Z,65.57
2023-02-06T09:20:50.482Z,62.40
2023-02-06T09:25:54.500Z,66.90
2023-02-06T09:30:59.962Z,58.28
2023-02-06T09:36:05.279Z,50.67
2023-02-06T09:41:17.175Z,53.50
2023-02-06T09:46:28.101Z,58.27
2023-02-06T09:51:41.602Z,48.78
2023-02-06T09:56:54.087Z,53.80
2023-02-06T10:02:22.146Z,42.30
2023-02-06T10:07:51.077Z,37.42
2023-02-06T10:13:01.969Z,29.10
2023-02-06T10:18:14.742Z,31.65
2023-02-06T10:23:25.446Z,26.85
2023-02-06T10:28:30.947Z,24.88
2023-02-06T10:33:42.250Z,23.08
2023-02-06T10:39:18.125Z,22.48
2023-02-06T10:44:28.469Z,23.33
2023-02-06T10:49:39.834Z,20.50
2023-02-06T10:54:52.070Z,27.02
2023-02-06T11:00:01.184Z,25.98
2023-02-06T11:05:10.667Z,25.55
2023-02-06T11:10:17.708Z,24.17
2023-02-06T11:15:26.477Z,20.92
2023-02-06T11:20:34.670Z,25.33
2023-02-06T11:25:38.586Z,23.42
2023-02-06T11:30:54.182Z,27.08
2023-02-06T11:36:00.751Z,20.92
2023-02-06T11:41:06.478Z,20.90
2023-02-06T11:46:16.923Z,20.85
2023-02-06T11:51:21.879Z,19.33
2023-02-06T11:56:26.014Z,17.20
2023-02-06T12:01:43.139Z,15.48
2023-02-06T12:06:48.649Z,14.00
2023-02-06T12:11:58.109Z,15.35
2023-02-06T12:17:04.143Z,14.07
2023-02-06T12:22:16.986Z,19.35
2023-02-06T12:27:24.918Z,21.73
2023-02-06T12:32:33.745Z,19.67
2023-02-06T12:37:45.191Z,21.27
2023-02-06T12:42:57.489Z,19.95
2023-02-06T12:48:07.658Z,15.63
2023-02-06T12:53:19.468Z,16.55
2023-02-06T12:58:28.141Z,16.50
2023-02-06T13:03:35.476Z,16.77
2023-02-06T13:08:46.006Z,15.88
2023-02-06T13:13:50.850Z,23.60
2023-02-06T13:18:54.490Z,19.52
2023-02-06T13:24:18.589Z,20.65
2023-02-06T13:29:27.036Z,18.98
2023-02-06T13:34:30.866Z,18.88
2023-02-06T13:39:35.688Z,20.58
2023-02-06T13:44:40.258Z,17.90
2023-02-06T13:50:07.245Z,17.15
2023-02-06T13:55:27.161Z,19.15
2023-02-06T14:00:34.210Z,22.42
2023-02-06T14:05:48.507Z,19.42
2023-02-06T14:11:24.426Z,20.42
2023-02-06T14:16:40.510Z,24.52
2023-02-06T14:21:52.436Z,25.73
2023-02-06T14:27:09.926Z,25.13
2023-02-06T14:32:38.983Z,20.42
2023-02-06T14:37:58.190Z,20.70
2023-02-06T14:43:07.429Z,22.23
2023-02-06T14:48:21.997Z,17.85
2023-02-06T14:53:29.848Z,20.60
2023-02-06T14:58:35.034Z,17.42
2023-02-06T15:03:40.286Z,20.95
2023-02-06T15:08:49.543Z,17.83
2023-02-06T15:13:57.248Z,19.83
2023-02-06T15:19:21.099Z,18.90
2023-02-06T15:24:50.935Z,17.92
2023-02-06T15:29:56.256Z,17.10
2023-02-06T15:35:00.675Z,18.02
2023-02-06T15:40:09.589Z,13.95
2023-02-06T15:45:21.973Z,21.25
2023-02-06T15:50:28.506Z,18.48
2023-02-06T15:55:36.805Z,21.08
2023-02-06T16:00:42.880Z,25.45
2023-02-06T16:05:46.621Z,23.92
2023-02-06T16:10:52.763Z,23.60
2023-02-06T16:16:08.447Z,22.95
2023-02-06T16:21:14.769Z,27.10
2023-02-06T16:26:20.173Z,25.13
2023-02-06T16:31:26.858Z,31.55
2023-02-06T16:36:32.638Z,56.63
2023-02-06T16:41:38.280Z,49.30
2023-02-06T16:46:43.310Z,44.33
2023-02-06T16:51:48.523Z,58.65
2023-02-06T16:56:54.246Z,63.60
2023-02-06T17:01:59.359Z,60.97
2023-02-06T17:07:03.784Z,63.33
2023-02-06T17:12:11.074Z,65.80
2023-02-06T17:17:18.495Z,77.45
2023-02-06T17:22:24.919Z,79.05
2023-02-06T17:27:28.461Z,72.53
2023-02-06T17:32:33.268Z,65.65
2023-02-06T17:37:37.128Z,63.17
2023-02-06T17:42:40.865Z,55.33
2023-02-06T17:47:46.155Z,58.08
2023-02-06T17:52:50.323Z,58.83
2023-02-06T17:57:55.388Z,56.72
2023-02-06T18:03:01.286Z,58.78
2023-02-06T18:08:05.230Z,64.22
2023-02-06T18:13:10.491Z,64.57
2023-02-06T18:18:15.353Z,52.35
2023-02-06T18:23:19.474Z,54.42
2023-02-06T18:28:23.093Z,44.95
2023-02-06T18:33:28.068Z,42.90
2023-02-06T18:38:31.866Z,45.08
2023-02-06T18:43:35.291Z,43.92
2023-02-06T18:48:40.554Z,62.55
2023-02-06T18:53:44.456Z,94.03
2023-02-06T18:58:48.200Z,103.95
2023-02-06T19:03:54.137Z,93.88
2023-02-06T19:08:58.700Z,95.70
2023-02-06T19:14:02.694Z,79.20
2023-02-06T19:19:08.627Z,81.65
2023-02-06T19:24:14.270Z,93.15
2023-02-06T19:29:34.405Z,107.00
2023-02-06T19:34:42.118Z,114.88
2023-02-06T19:39:45.735Z,124.43
2023-02-06T19:44:53.952Z,110.57
2023-02-06T19:49:59.127Z,108.93
2023-02-06T19:55:03.048Z,102.03
2023-02-06T20:00:10.476Z,102.25
2023-02-06T20:05:15.608Z,103.63
2023-02-06T20:10:19.115Z,102.72
2023-02-06T20:15:22.948Z,81.93
2023-02-06T20:20:28.264Z,69.97
2023-02-06T20:25:31.865Z,77.30
2023-02-06T20:30:36.308Z,81.55
2023-02-06T20:35:44.117Z,80.90
2023-02-06T20:40:51.440Z,77.80
2023-02-06T20:45:54.996Z,78.55
2023-02-06T20:51:00.562Z,83.63
2023-02-06T20:56:04.067Z,80.43
2023-02-06T21:01:14.011Z,84.32
2023-02-06T21:06:19.105Z,81.68
2023-02-06T21:11:23.353Z,77.53
2023-02-06T21:16:28.583Z,72.68
2023-02-06T21:21:33.831Z,78.22
2023-02-06T21:26:38.144Z,69.20
2023-02-06T21:31:41.666Z,79.10
2023-02-06T21:36:47.470Z,76.68
2023-02-06T21:41:53.822Z,79.45
2023-02-06T21:46:57.334Z,78.80
2023-02-06T21:52:02.309Z,69.90
2023-02-06T21:57:06.060Z,77.80
2023-02-06T22:02:11.418Z,79.55
2023-02-06T22:07:16.162Z,79.15
2023-02-06T22:12:19.580Z,78.78
2023-02-06T22:17:22.989Z,80.88
2023-02-06T22:22:28.069Z,77.18
2023-02-06T22:27:33.747Z,81.05
2023-02-06T22:32:38.232Z,81.72
2023-02-06T22:37:44.575Z,84.00
2023-02-06T22:42:48.145Z,88.85
2023-02-06T22:47:51.564Z,80.38
2023-02-06T22:53:19.216Z,94.65
2023-02-06T22:58:22.626Z,124.18
2023-02-06T23:03:26.028Z,138.02
2023-02-06T23:08:30.972Z,130.80
2023-02-06T23:13:34.710Z,124.57
2023-02-06T23:18:38.955Z,116.93
2023-02-06T23:23:44.263Z,103.68
2023-02-06T23:28:47.922Z,107.40
2023-02-06T23:33:51.715Z,101.15
2023-02-06T23:38:56.834Z,106.63
2023-02-06T23:44:02.305Z,107.85
2023-02-06T23:49:06.416Z,103.45
2023-02-06T23:54:11.634Z,104.55
2023-02-06T23:59:15.390Z,108.60
